sensor_id;sensor_type;location;lat;lon;timestamp;temperature;humidity
15949;DHT22;14848;50.954;6.642;2022-09-09T00:02:40;15.70;99.90
15949;DHT22;14848;50.954;6.642;2022-09-09T00:04:36;15.70;99.90
15949;DHT22;14848;50.954;6.642;2022-09-09T00:09:48;15.70;99.90
15949;DHT22;14848;50.954;6.642;2022-09-09T00:12:17;15.70;99.90
15949;DHT22;14848;50.954;6.642;2022-09-09T00:17:19;15.80;99.90
15949;DHT22;14848;50.954;6.642;2022-09-09T00:19:49;15.90;99.90
15949;DHT22;14848;50.954;6.642;2022-09-09T00:22:19;15.90;99.90
15949;DHT22;14848;50.954;6.642;2022-09-09T00:24:46;15.90;99.90
15949;DHT22;14848;50.954;6.642;2022-09-09T00:27:16;16.00;99.90
15949;DHT22;14848;50.954;6.642;2022-09-09T00:29:53;16.00;99.90
15949;DHT22;14848;50.954;6.642;2022-09-09T00:32:20;16.00;99.90
15949;DHT22;14848;50.954;6.642;2022-09-09T00:34:47;16.00;99.90
15949;DHT22;14848;50.954;6.642;2022-09-09T00:37:13;16.00;99.90
15949;DHT22;14848;50.954;6.642;2022-09-09T00:39:44;16.00;99.90
15949;DHT22;14848;50.954;6.642;2022-09-09T00:42:25;16.00;99.90
15949;DHT22;14848;50.954;6.642;2022-09-09T00:44:51;15.90;99.90
15949;DHT22;14848;50.954;6.642;2022-09-09T00:54:57;15.60;99.90
15949;DHT22;14848;50.954;6.642;2022-09-09T00:57:25;15.60;99.90
15949;DHT22;14848;50.954;6.642;2022-09-09T00:59:58;15.50;99.90
15949;DHT22;14848;50.954;6.642;2022-09-09T01:04:50;15.40;99.90
15949;DHT22;14848;50.954;6.642;2022-09-09T01:07:16;15.40;99.90
15949;DHT22;14848;50.954;6.642;2022-09-09T01:12:14;15.30;99.90
15949;DHT22;14848;50.954;6.642;2022-09-09T01:14:51;15.40;99.90
15949;DHT22;14848;50.954;6.642;2022-09-09T01:17:19;15.40;99.90
15949;DHT22;14848;50.954;6.642;2022-09-09T01:19:59;15.40;99.90
15949;DHT22;14848;50.954;6.642;2022-09-09T01:27:21;15.30;99.90
15949;DHT22;14848;50.954;6.642;2022-09-09T01:29:48;15.30;99.90
15949;DHT22;14848;50.954;6.642;2022-09-09T01:34:58;15.20;99.90
15949;DHT22;14848;50.954;6.642;2022-09-09T01:37:23;15.20;99.90
15949;DHT22;14848;50.954;6.642;2022-09-09T01:39:51;15.10;99.90
15949;DHT22;14848;50.954;6.642;2022-09-09T01:42:16;15.10;99.90
15949;DHT22;14848;50.954;6.642;2022-09-09T01:44:42;15.10;99.90
15949;DHT22;14848;50.954;6.642;2022-09-09T01:47:08;15.10;99.90
15949;DHT22;14848;50.954;6.642;2022-09-09T01:49:33;15.20;99.90
15949;DHT22;14848;50.954;6.642;2022-09-09T01:51:59;15.30;99.90
15949;DHT22;14848;50.954;6.642;2022-09-09T01:54:29;15.30;99.90
15949;DHT22;14848;50.954;6.642;2022-09-09T02:04:41;15.30;99.90
15949;DHT22;14848;50.954;6.642;2022-09-09T02:09:42;15.30;99.90
15949;DHT22;14848;50.954;6.642;2022-09-09T02:12:11;15.30;99.90
15949;DHT22;14848;50.954;6.642;2022-09-09T02:14:39;15.30;99.90
15949;DHT22;14848;50.954;6.642;2022-09-09T02:17:09;15.30;99.90
15949;DHT22;14848;50.954;6.642;2022-09-09T02:19:40;15.30;99.90
15949;DHT22;14848;50.954;6.642;2022-09-09T02:22:09;15.30;99.90
15949;DHT22;14848;50.954;6.642;2022-09-09T02:24:35;15.30;99.90
15949;DHT22;14848;50.954;6.642;2022-09-09T02:27:03;15.30;99.90
15949;DHT22;14848;50.954;6.642;2022-09-09T02:29:39;15.30;99.90
15949;DHT22;14848;50.954;6.642;2022-09-09T02:32:07;15.30;99.90
15949;DHT22;14848;50.954;6.642;2022-09-09T02:34:35;15.30;99.90
15949;DHT22;14848;50.954;6.642;2022-09-09T02:37:02;15.30;99.90
15949;DHT22;14848;50.954;6.642;2022-09-09T02:39:29;15.20;99.90
15949;DHT22;14848;50.954;6.642;2022-09-09T02:41:55;15.20;99.90
15949;DHT22;14848;50.954;6.642;2022-09-09T02:44:21;15.30;99.90
15949;DHT22;14848;50.954;6.642;2022-09-09T02:47:24;15.30;99.90
15949;DHT22;14848;50.954;6.642;2022-09-09T02:49:52;15.30;99.90
15949;DHT22;14848;50.954;6.642;2022-09-09T02:52:25;15.40;99.90
15949;DHT22;14848;50.954;6.642;2022-09-09T02:54:53;15.40;99.90
15949;DHT22;14848;50.954;6.642;2022-09-09T02:57:23;15.40;99.90
15949;DHT22;14848;50.954;6.642;2022-09-09T02:59:50;15.40;99.90
15949;DHT22;14848;50.954;6.642;2022-09-09T03:02:17;15.40;99.90
15949;DHT22;14848;50.954;6.642;2022-09-09T03:04:44;15.40;99.90
15949;DHT22;14848;50.954;6.642;2022-09-09T03:07:10;15.40;99.90
15949;DHT22;14848;50.954;6.642;2022-09-09T03:09:35;15.40;99.90
15949;DHT22;14848;50.954;6.642;2022-09-09T03:12:01;15.40;99.90
15949;DHT22;14848;50.954;6.642;2022-09-09T03:14:27;15.40;99.90
15949;DHT22;14848;50.954;6.642;2022-09-09T03:16:53;15.40;99.90
15949;DHT22;14848;50.954;6.642;2022-09-09T03:19:18;15.40;99.90
15949;DHT22;14848;50.954;6.642;2022-09-09T03:21:47;15.40;99.90
15949;DHT22;14848;50.954;6.642;2022-09-09T03:24:13;15.40;99.90
15949;DHT22;14848;50.954;6.642;2022-09-09T03:26:39;15.40;99.90
15949;DHT22;14848;50.954;6.642;2022-09-09T03:29:06;15.40;99.90
15949;DHT22;14848;50.954;6.642;2022-09-09T03:31:32;15.40;99.90
15949;DHT22;14848;50.954;6.642;2022-09-09T03:33:57;15.40;99.90
15949;DHT22;14848;50.954;6.642;2022-09-09T03:36:23;15.40;99.90
15949;DHT22;14848;50.954;6.642;2022-09-09T03:38:49;15.50;99.90
15949;DHT22;14848;50.954;6.642;2022-09-09T03:41:15;15.50;99.90
15949;DHT22;14848;50.954;6.642;2022-09-09T03:43:41;15.40;99.90
15949;DHT22;14848;50.954;6.642;2022-09-09T03:46:07;15.50;99.90
15949;DHT22;14848;50.954;6.642;2022-09-09T03:48:32;15.50;99.90
15949;DHT22;14848;50.954;6.642;2022-09-09T03:50:58;15.50;99.90
15949;DHT22;14848;50.954;6.642;2022-09-09T03:53:25;15.50;99.90
15949;DHT22;14848;50.954;6.642;2022-09-09T03:55:52;15.60;99.90
15949;DHT22;14848;50.954;6.642;2022-09-09T03:58:20;15.60;99.90
15949;DHT22;14848;50.954;6.642;2022-09-09T04:03:20;15.60;99.90
15949;DHT22;14848;50.954;6.642;2022-09-09T04:05:48;15.60;99.90
15949;DHT22;14848;50.954;6.642;2022-09-09T04:08:14;15.60;99.90
15949;DHT22;14848;50.954;6.642;2022-09-09T04:10:39;15.60;99.90
15949;DHT22;14848;50.954;6.642;2022-09-09T04:13:05;15.70;99.90
15949;DHT22;14848;50.954;6.642;2022-09-09T04:15:31;15.60;99.90
15949;DHT22;14848;50.954;6.642;2022-09-09T04:17:56;15.70;99.90
15949;DHT22;14848;50.954;6.642;2022-09-09T04:20:22;15.70;99.90
15949;DHT22;14848;50.954;6.642;2022-09-09T04:22:48;15.70;99.90
15949;DHT22;14848;50.954;6.642;2022-09-09T04:25:13;15.70;99.90
15949;DHT22;14848;50.954;6.642;2022-09-09T04:27:39;15.70;99.90
15949;DHT22;14848;50.954;6.642;2022-09-09T04:30:05;15.70;99.90
15949;DHT22;14848;50.954;6.642;2022-09-09T04:32:32;15.70;99.90
15949;DHT22;14848;50.954;6.642;2022-09-09T04:34:58;15.70;99.90
15949;DHT22;14848;50.954;6.642;2022-09-09T04:37:23;15.70;99.90
15949;DHT22;14848;50.954;6.642;2022-09-09T04:39:50;15.80;99.90
15949;DHT22;14848;50.954;6.642;2022-09-09T04:42:15;15.80;99.90
15949;DHT22;14848;50.954;6.642;2022-09-09T04:44:43;15.80;99.90
15949;DHT22;14848;50.954;6.642;2022-09-09T04:47:09;15.80;99.90
15949;DHT22;14848;50.954;6.642;2022-09-09T04:49:35;15.90;99.90
15949;DHT22;14848;50.954;6.642;2022-09-09T04:52:04;15.90;99.90
15949;DHT22;14848;50.954;6.642;2022-09-09T04:54:30;15.90;99.90
15949;DHT22;14848;50.954;6.642;2022-09-09T04:56:55;15.90;99.90
15949;DHT22;14848;50.954;6.642;2022-09-09T04:59:21;15.90;99.90
15949;DHT22;14848;50.954;6.642;2022-09-09T05:01:47;15.90;99.90
15949;DHT22;14848;50.954;6.642;2022-09-09T05:04:13;15.90;99.90
15949;DHT22;14848;50.954;6.642;2022-09-09T05:06:40;15.90;99.90
15949;DHT22;14848;50.954;6.642;2022-09-09T05:09:06;15.90;99.90
15949;DHT22;14848;50.954;6.642;2022-09-09T05:11:32;16.00;99.90
15949;DHT22;14848;50.954;6.642;2022-09-09T05:13:58;16.00;99.90
15949;DHT22;14848;50.954;6.642;2022-09-09T05:16:23;16.00;99.90
15949;DHT22;14848;50.954;6.642;2022-09-09T05:18:49;16.10;99.90
15949;DHT22;14848;50.954;6.642;2022-09-09T05:21:17;16.10;99.90
15949;DHT22;14848;50.954;6.642;2022-09-09T05:23:42;16.10;99.90
15949;DHT22;14848;50.954;6.642;2022-09-09T05:26:12;16.20;99.90
15949;DHT22;14848;50.954;6.642;2022-09-09T05:28:38;16.20;99.90
15949;DHT22;14848;50.954;6.642;2022-09-09T05:31:05;16.20;99.90
15949;DHT22;14848;50.954;6.642;2022-09-09T05:33:33;16.30;99.90
15949;DHT22;14848;50.954;6.642;2022-09-09T05:36:06;16.30;99.90
15949;DHT22;14848;50.954;6.642;2022-09-09T05:38:33;16.40;99.90
15949;DHT22;14848;50.954;6.642;2022-09-09T05:40:59;16.50;99.90
15949;DHT22;14848;50.954;6.642;2022-09-09T05:43:25;16.50;99.90
15949;DHT22;14848;50.954;6.642;2022-09-09T05:46:01;16.70;99.90
15949;DHT22;14848;50.954;6.642;2022-09-09T05:48:30;16.70;99.90
15949;DHT22;14848;50.954;6.642;2022-09-09T05:50:56;16.80;99.90
15949;DHT22;14848;50.954;6.642;2022-09-09T05:53:22;16.80;99.90
15949;DHT22;14848;50.954;6.642;2022-09-09T05:55:47;16.90;99.90
15949;DHT22;14848;50.954;6.642;2022-09-09T05:58:13;17.00;99.90
15949;DHT22;14848;50.954;6.642;2022-09-09T06:00:39;17.00;99.90
15949;DHT22;14848;50.954;6.642;2022-09-09T06:03:05;17.00;99.90
15949;DHT22;14848;50.954;6.642;2022-09-09T06:05:30;17.00;99.90
15949;DHT22;14848;50.954;6.642;2022-09-09T06:07:56;17.00;99.90
15949;DHT22;14848;50.954;6.642;2022-09-09T06:10:22;17.00;99.90
15949;DHT22;14848;50.954;6.642;2022-09-09T06:12:47;17.00;99.90
15949;DHT22;14848;50.954;6.642;2022-09-09T06:15:13;16.90;99.90
15949;DHT22;14848;50.954;6.642;2022-09-09T06:17:38;17.00;99.90
15949;DHT22;14848;50.954;6.642;2022-09-09T06:20:04;17.10;99.90
15949;DHT22;14848;50.954;6.642;2022-09-09T06:22:30;17.40;99.90
15949;DHT22;14848;50.954;6.642;2022-09-09T06:24:55;17.50;99.90
15949;DHT22;14848;50.954;6.642;2022-09-09T06:27:21;17.60;99.90
15949;DHT22;14848;50.954;6.642;2022-09-09T06:29:47;18.00;99.90
15949;DHT22;14848;50.954;6.642;2022-09-09T06:32:13;19.30;99.90
15949;DHT22;14848;50.954;6.642;2022-09-09T06:34:39;20.40;99.90
15949;DHT22;14848;50.954;6.642;2022-09-09T06:37:05;21.30;99.90
15949;DHT22;14848;50.954;6.642;2022-09-09T06:39:31;22.30;99.90
15949;DHT22;14848;50.954;6.642;2022-09-09T06:41:57;23.10;99.90
15949;DHT22;14848;50.954;6.642;2022-09-09T06:44:23;23.30;99.90
15949;DHT22;14848;50.954;6.642;2022-09-09T06:46:51;23.30;99.90
15949;DHT22;14848;50.954;6.642;2022-09-09T06:49:17;22.80;99.90
15949;DHT22;14848;50.954;6.642;2022-09-09T06:51:43;22.30;99.90
15949;DHT22;14848;50.954;6.642;2022-09-09T06:54:09;21.70;99.90
15949;DHT22;14848;50.954;6.642;2022-09-09T06:56:36;21.50;99.90
15949;DHT22;14848;50.954;6.642;2022-09-09T06:59:03;21.20;99.90
15949;DHT22;14848;50.954;6.642;2022-09-09T07:01:30;20.80;99.90
15949;DHT22;14848;50.954;6.642;2022-09-09T07:03:56;20.70;99.90
15949;DHT22;14848;50.954;6.642;2022-09-09T07:06:26;20.60;99.90
15949;DHT22;14848;50.954;6.642;2022-09-09T07:08:56;20.50;99.90
15949;DHT22;14848;50.954;6.642;2022-09-09T07:11:24;20.40;99.90
15949;DHT22;14848;50.954;6.642;2022-09-09T07:13:51;20.20;99.90
15949;DHT22;14848;50.954;6.642;2022-09-09T07:16:17;20.20;99.90
15949;DHT22;14848;50.954;6.642;2022-09-09T07:18:43;20.20;99.90
15949;DHT22;14848;50.954;6.642;2022-09-09T07:21:09;20.20;99.90
15949;DHT22;14848;50.954;6.642;2022-09-09T07:23:35;20.40;99.90
15949;DHT22;14848;50.954;6.642;2022-09-09T07:26:01;20.50;99.90
15949;DHT22;14848;50.954;6.642;2022-09-09T07:28:26;20.60;99.90
15949;DHT22;14848;50.954;6.642;2022-09-09T07:30:54;20.50;99.90
15949;DHT22;14848;50.954;6.642;2022-09-09T07:33:20;20.40;99.90
15949;DHT22;14848;50.954;6.642;2022-09-09T07:35:46;20.20;99.90
15949;DHT22;14848;50.954;6.642;2022-09-09T07:38:11;20.20;99.90
15949;DHT22;14848;50.954;6.642;2022-09-09T07:40:37;20.20;99.90
15949;DHT22;14848;50.954;6.642;2022-09-09T07:43:02;20.10;99.90
15949;DHT22;14848;50.954;6.642;2022-09-09T07:45:28;20.10;99.90
15949;DHT22;14848;50.954;6.642;2022-09-09T07:47:54;20.10;99.90
15949;DHT22;14848;50.954;6.642;2022-09-09T07:50:22;20.20;99.90
15949;DHT22;14848;50.954;6.642;2022-09-09T07:52:48;20.20;99.90
15949;DHT22;14848;50.954;6.642;2022-09-09T07:55:14;20.20;99.90
15949;DHT22;14848;50.954;6.642;2022-09-09T07:57:40;20.20;99.90
15949;DHT22;14848;50.954;6.642;2022-09-09T08:00:06;20.20;99.90
15949;DHT22;14848;50.954;6.642;2022-09-09T08:02:31;20.20;99.90
15949;DHT22;14848;50.954;6.642;2022-09-09T08:04:57;20.30;99.90
15949;DHT22;14848;50.954;6.642;2022-09-09T08:07:22;20.30;99.90
15949;DHT22;14848;50.954;6.642;2022-09-09T08:09:48;20.40;99.90
15949;DHT22;14848;50.954;6.642;2022-09-09T08:12:14;20.30;99.90
15949;DHT22;14848;50.954;6.642;2022-09-09T08:14:40;20.40;99.90
15949;DHT22;14848;50.954;6.642;2022-09-09T08:17:05;20.20;99.90
15949;DHT22;14848;50.954;6.642;2022-09-09T08:19:31;20.20;99.90
15949;DHT22;14848;50.954;6.642;2022-09-09T08:21:59;20.20;99.90
15949;DHT22;14848;50.954;6.642;2022-09-09T08:24:27;20.20;99.90
15949;DHT22;14848;50.954;6.642;2022-09-09T08:26:52;20.10;99.90
15949;DHT22;14848;50.954;6.642;2022-09-09T08:29:18;20.10;99.90
15949;DHT22;14848;50.954;6.642;2022-09-09T08:31:45;20.10;99.90
15949;DHT22;14848;50.954;6.642;2022-09-09T08:34:12;20.20;99.90
15949;DHT22;14848;50.954;6.642;2022-09-09T08:36:39;20.40;99.90
15949;DHT22;14848;50.954;6.642;2022-09-09T08:39:06;20.40;99.90
15949;DHT22;14848;50.954;6.642;2022-09-09T08:51:59;20.60;99.90
15949;DHT22;14848;50.954;6.642;2022-09-09T08:54:25;20.80;99.90
15949;DHT22;14848;50.954;6.642;2022-09-09T08:56:52;20.90;99.90
15949;DHT22;14848;50.954;6.642;2022-09-09T08:59:18;20.80;99.90
15949;DHT22;14848;50.954;6.642;2022-09-09T09:01:48;20.80;99.90
15949;DHT22;14848;50.954;6.642;2022-09-09T09:12:00;20.60;99.90
15949;DHT22;14848;50.954;6.642;2022-09-09T09:14:30;20.70;99.90
15949;DHT22;14848;50.954;6.642;2022-09-09T09:17:00;20.70;99.90
15949;DHT22;14848;50.954;6.642;2022-09-09T09:19:26;20.70;99.90
15949;DHT22;14848;50.954;6.642;2022-09-09T09:21:54;20.60;99.90
15949;DHT22;14848;50.954;6.642;2022-09-09T09:24:26;20.60;99.90
15949;DHT22;14848;50.954;6.642;2022-09-09T09:26:53;20.80;99.90
15949;DHT22;14848;50.954;6.642;2022-09-09T09:29:19;20.70;99.90
15949;DHT22;14848;50.954;6.642;2022-09-09T09:31:50;20.50;99.90
15949;DHT22;14848;50.954;6.642;2022-09-09T09:34:16;20.40;99.90
15949;DHT22;14848;50.954;6.642;2022-09-09T09:36:52;20.50;99.90
15949;DHT22;14848;50.954;6.642;2022-09-09T09:41:52;21.00;99.90
15949;DHT22;14848;50.954;6.642;2022-09-09T09:44:26;21.20;99.90
15949;DHT22;14848;50.954;6.642;2022-09-09T09:46:51;21.30;99.90
15949;DHT22;14848;50.954;6.642;2022-09-09T09:49:17;21.40;99.90
15949;DHT22;14848;50.954;6.642;2022-09-09T09:51:43;21.10;99.90
15949;DHT22;14848;50.954;6.642;2022-09-09T09:54:13;21.00;99.90
15949;DHT22;14848;50.954;6.642;2022-09-09T09:56:44;20.90;99.90
15949;DHT22;14848;50.954;6.642;2022-09-09T09:59:20;21.10;99.90
15949;DHT22;14848;50.954;6.642;2022-09-09T10:01:46;21.20;99.90
15949;DHT22;14848;50.954;6.642;2022-09-09T10:04:16;21.40;99.90
15949;DHT22;14848;50.954;6.642;2022-09-09T10:06:43;21.50;99.90
15949;DHT22;14848;50.954;6.642;2022-09-09T10:19:38;21.60;99.90
15949;DHT22;14848;50.954;6.642;2022-09-09T10:27:23;21.80;99.90
15949;DHT22;14848;50.954;6.642;2022-09-09T10:35:22;21.60;99.90
15949;DHT22;14848;50.954;6.642;2022-09-09T10:38:03;21.40;99.90
15949;DHT22;14848;50.954;6.642;2022-09-09T10:42:58;21.50;99.90
15949;DHT22;14848;50.954;6.642;2022-09-09T10:45:29;21.60;99.90
15949;DHT22;14848;50.954;6.642;2022-09-09T10:48:03;21.80;99.90
15949;DHT22;14848;50.954;6.642;2022-09-09T10:50:40;21.60;99.90
15949;DHT22;14848;50.954;6.642;2022-09-09T10:55:35;21.40;99.90
15949;DHT22;14848;50.954;6.642;2022-09-09T10:58:03;21.10;99.90
15949;DHT22;14848;50.954;6.642;2022-09-09T11:00:40;20.90;99.90
15949;DHT22;14848;50.954;6.642;2022-09-09T11:03:06;20.70;99.90
15949;DHT22;14848;50.954;6.642;2022-09-09T11:05:43;20.50;99.90
15949;DHT22;14848;50.954;6.642;2022-09-09T11:08:20;20.40;99.90
15949;DHT22;14848;50.954;6.642;2022-09-09T11:16:00;20.60;99.90
15949;DHT22;14848;50.954;6.642;2022-09-09T11:18:26;20.80;99.90
15949;DHT22;14848;50.954;6.642;2022-09-09T11:20:56;20.90;99.90
15949;DHT22;14848;50.954;6.642;2022-09-09T11:23:25;21.10;99.90
15949;DHT22;14848;50.954;6.642;2022-09-09T11:25:56;21.10;99.90
15949;DHT22;14848;50.954;6.642;2022-09-09T11:33:59;20.90;99.90
15949;DHT22;14848;50.954;6.642;2022-09-09T11:36:49;21.00;99.90
15949;DHT22;14848;50.954;6.642;2022-09-09T11:41:43;20.80;99.90
15949;DHT22;14848;50.954;6.642;2022-09-09T11:44:10;20.80;99.90
15949;DHT22;14848;50.954;6.642;2022-09-09T11:46:36;20.60;99.90
15949;DHT22;14848;50.954;6.642;2022-09-09T11:49:05;20.50;99.90
15949;DHT22;14848;50.954;6.642;2022-09-09T11:51:33;20.50;99.90
15949;DHT22;14848;50.954;6.642;2022-09-09T11:56:48;20.70;99.90
15949;DHT22;14848;50.954;6.642;2022-09-09T11:59:31;20.90;99.90
15949;DHT22;14848;50.954;6.642;2022-09-09T12:02:18;21.30;99.90
15949;DHT22;14848;50.954;6.642;2022-09-09T12:05:07;21.30;99.90
15949;DHT22;14848;50.954;6.642;2022-09-09T12:07:45;21.40;99.90
15949;DHT22;14848;50.954;6.642;2022-09-09T12:10:30;21.50;99.90
15949;DHT22;14848;50.954;6.642;2022-09-09T12:13:17;21.50;99.90
15949;DHT22;14848;50.954;6.642;2022-09-09T12:15:52;21.50;99.90
15949;DHT22;14848;50.954;6.642;2022-09-09T12:18:39;21.70;99.90
15949;DHT22;14848;50.954;6.642;2022-09-09T12:28:58;19.80;99.90
15949;DHT22;14848;50.954;6.642;2022-09-09T12:33:52;18.60;99.90
15949;DHT22;14848;50.954;6.642;2022-09-09T12:36:24;18.50;99.90
15949;DHT22;14848;50.954;6.642;2022-09-09T12:38:52;18.60;99.90
15949;DHT22;14848;50.954;6.642;2022-09-09T12:41:19;18.80;99.90
15949;DHT22;14848;50.954;6.642;2022-09-09T12:43:45;19.00;99.90
15949;DHT22;14848;50.954;6.642;2022-09-09T12:46:13;19.10;99.90
15949;DHT22;14848;50.954;6.642;2022-09-09T12:48:44;19.20;99.90
15949;DHT22;14848;50.954;6.642;2022-09-09T12:51:18;19.40;99.90
15949;DHT22;14848;50.954;6.642;2022-09-09T12:53:44;19.60;99.90
15949;DHT22;14848;50.954;6.642;2022-09-09T12:56:18;19.70;99.90
15949;DHT22;14848;50.954;6.642;2022-09-09T12:58:45;19.80;99.90
15949;DHT22;14848;50.954;6.642;2022-09-09T13:01:18;19.90;99.90
15949;DHT22;14848;50.954;6.642;2022-09-09T13:03:45;19.90;99.90
15949;DHT22;14848;50.954;6.642;2022-09-09T13:06:20;20.00;99.90
15949;DHT22;14848;50.954;6.642;2022-09-09T13:08:48;20.30;99.90
15949;DHT22;14848;50.954;6.642;2022-09-09T13:11:14;20.50;99.90
15949;DHT22;14848;50.954;6.642;2022-09-09T13:13:42;20.50;99.90
15949;DHT22;14848;50.954;6.642;2022-09-09T13:16:22;20.50;99.90
15949;DHT22;14848;50.954;6.642;2022-09-09T13:18:48;20.60;99.90
15949;DHT22;14848;50.954;6.642;2022-09-09T13:21:14;20.50;99.90
15949;DHT22;14848;50.954;6.642;2022-09-09T13:23:40;20.40;99.90
15949;DHT22;14848;50.954;6.642;2022-09-09T13:26:22;20.50;99.90
15949;DHT22;14848;50.954;6.642;2022-09-09T13:28:48;20.60;99.90
15949;DHT22;14848;50.954;6.642;2022-09-09T13:33:46;20.70;99.90
15949;DHT22;14848;50.954;6.642;2022-09-09T13:36:11;20.60;99.90
15949;DHT22;14848;50.954;6.642;2022-09-09T13:44:14;20.50;99.90
15949;DHT22;14848;50.954;6.642;2022-09-09T13:46:42;20.70;99.90
15949;DHT22;14848;50.954;6.642;2022-09-09T13:51:41;21.00;99.90
15949;DHT22;14848;50.954;6.642;2022-09-09T13:54:10;21.20;99.90
15949;DHT22;14848;50.954;6.642;2022-09-09T13:56:37;21.10;99.90
15949;DHT22;14848;50.954;6.642;2022-09-09T13:59:04;21.40;99.90
15949;DHT22;14848;50.954;6.642;2022-09-09T14:01:29;21.10;99.90
15949;DHT22;14848;50.954;6.642;2022-09-09T14:03:55;21.10;99.90
15949;DHT22;14848;50.954;6.642;2022-09-09T14:06:21;21.00;99.90
15949;DHT22;14848;50.954;6.642;2022-09-09T14:08:50;21.10;99.90
15949;DHT22;14848;50.954;6.642;2022-09-09T14:11:15;21.10;99.90
15949;DHT22;14848;50.954;6.642;2022-09-09T14:13:41;21.10;99.90
15949;DHT22;14848;50.954;6.642;2022-09-09T14:16:07;21.10;99.90
15949;DHT22;14848;50.954;6.642;2022-09-09T14:18:32;21.00;99.90
15949;DHT22;14848;50.954;6.642;2022-09-09T14:20:59;21.00;99.90
15949;DHT22;14848;50.954;6.642;2022-09-09T14:23:24;20.80;99.90
15949;DHT22;14848;50.954;6.642;2022-09-09T14:25:50;20.80;99.90
15949;DHT22;14848;50.954;6.642;2022-09-09T14:28:16;20.60;99.90
15949;DHT22;14848;50.954;6.642;2022-09-09T14:30:42;20.50;99.90
15949;DHT22;14848;50.954;6.642;2022-09-09T14:33:10;20.50;99.90
15949;DHT22;14848;50.954;6.642;2022-09-09T14:35:36;20.40;99.90
15949;DHT22;14848;50.954;6.642;2022-09-09T14:38:02;20.40;99.90
15949;DHT22;14848;50.954;6.642;2022-09-09T14:40:28;20.10;99.90
15949;DHT22;14848;50.954;6.642;2022-09-09T14:42:53;20.00;99.90
15949;DHT22;14848;50.954;6.642;2022-09-09T14:45:19;20.00;99.90
15949;DHT22;14848;50.954;6.642;2022-09-09T14:47:46;20.10;99.90
15949;DHT22;14848;50.954;6.642;2022-09-09T14:50:12;20.20;99.90
15949;DHT22;14848;50.954;6.642;2022-09-09T14:52:38;20.40;99.90
15949;DHT22;14848;50.954;6.642;2022-09-09T14:55:04;20.50;99.90
15949;DHT22;14848;50.954;6.642;2022-09-09T14:57:29;20.60;99.90
15949;DHT22;14848;50.954;6.642;2022-09-09T14:59:55;20.70;99.90
15949;DHT22;14848;50.954;6.642;2022-09-09T15:02:22;20.70;99.90
15949;DHT22;14848;50.954;6.642;2022-09-09T15:04:47;20.80;99.90
15949;DHT22;14848;50.954;6.642;2022-09-09T15:07:15;20.90;99.90
15949;DHT22;14848;50.954;6.642;2022-09-09T15:09:41;20.80;99.90
15949;DHT22;14848;50.954;6.642;2022-09-09T15:12:07;20.70;99.90
15949;DHT22;14848;50.954;6.642;2022-09-09T15:14:32;20.50;99.90
15949;DHT22;14848;50.954;6.642;2022-09-09T15:16:58;20.30;99.90
15949;DHT22;14848;50.954;6.642;2022-09-09T15:19:23;20.10;99.90
15949;DHT22;14848;50.954;6.642;2022-09-09T15:21:49;20.10;99.90
15949;DHT22;14848;50.954;6.642;2022-09-09T15:24:15;20.20;99.90
15949;DHT22;14848;50.954;6.642;2022-09-09T15:26:41;20.40;99.90
15949;DHT22;14848;50.954;6.642;2022-09-09T15:29:07;20.60;99.90
15949;DHT22;14848;50.954;6.642;2022-09-09T15:31:33;20.80;99.90
15949;DHT22;14848;50.954;6.642;2022-09-09T15:36:30;20.90;99.90
15949;DHT22;14848;50.954;6.642;2022-09-09T15:38:57;20.90;99.90
15949;DHT22;14848;50.954;6.642;2022-09-09T15:41:23;20.80;99.90
15949;DHT22;14848;50.954;6.642;2022-09-09T15:43:49;20.70;99.90
15949;DHT22;14848;50.954;6.642;2022-09-09T15:46:22;20.70;99.90
15949;DHT22;14848;50.954;6.642;2022-09-09T15:48:51;20.70;99.90
15949;DHT22;14848;50.954;6.642;2022-09-09T15:51:17;20.60;99.90
15949;DHT22;14848;50.954;6.642;2022-09-09T15:53:44;20.50;99.90
15949;DHT22;14848;50.954;6.642;2022-09-09T15:56:10;20.20;99.90
15949;DHT22;14848;50.954;6.642;2022-09-09T15:58:36;20.10;99.90
15949;DHT22;14848;50.954;6.642;2022-09-09T16:01:03;20.00;99.90
15949;DHT22;14848;50.954;6.642;2022-09-09T16:03:30;19.80;99.90
15949;DHT22;14848;50.954;6.642;2022-09-09T16:05:58;19.60;99.90
15949;DHT22;14848;50.954;6.642;2022-09-09T16:08:25;19.60;99.90
15949;DHT22;14848;50.954;6.642;2022-09-09T16:10:56;19.50;99.90
15949;DHT22;14848;50.954;6.642;2022-09-09T16:13:21;19.30;99.90
15949;DHT22;14848;50.954;6.642;2022-09-09T16:15:53;19.10;99.90
15949;DHT22;14848;50.954;6.642;2022-09-09T16:18:19;19.00;99.90
15949;DHT22;14848;50.954;6.642;2022-09-09T16:20:53;19.00;99.90
15949;DHT22;14848;50.954;6.642;2022-09-09T16:23:18;19.00;99.90
15949;DHT22;14848;50.954;6.642;2022-09-09T16:25:52;19.10;99.90
15949;DHT22;14848;50.954;6.642;2022-09-09T16:28:17;19.30;99.90
15949;DHT22;14848;50.954;6.642;2022-09-09T16:30:43;19.30;99.90
15949;DHT22;14848;50.954;6.642;2022-09-09T16:33:08;19.30;99.90
15949;DHT22;14848;50.954;6.642;2022-09-09T16:35:38;19.30;99.90
15949;DHT22;14848;50.954;6.642;2022-09-09T16:38:04;19.30;99.90
15949;DHT22;14848;50.954;6.642;2022-09-09T16:40:29;19.40;99.90
15949;DHT22;14848;50.954;6.642;2022-09-09T16:42:55;19.30;99.90
15949;DHT22;14848;50.954;6.642;2022-09-09T16:45:21;19.30;99.90
15949;DHT22;14848;50.954;6.642;2022-09-09T16:47:47;19.20;99.90
15949;DHT22;14848;50.954;6.642;2022-09-09T16:50:14;19.30;99.90
15949;DHT22;14848;50.954;6.642;2022-09-09T16:52:39;19.30;99.90
15949;DHT22;14848;50.954;6.642;2022-09-09T16:55:05;19.30;99.90
15949;DHT22;14848;50.954;6.642;2022-09-09T16:57:30;19.30;99.90
15949;DHT22;14848;50.954;6.642;2022-09-09T16:59:56;19.30;99.90
15949;DHT22;14848;50.954;6.642;2022-09-09T17:02:24;19.30;99.90
15949;DHT22;14848;50.954;6.642;2022-09-09T17:04:50;19.30;99.90
15949;DHT22;14848;50.954;6.642;2022-09-09T17:07:16;19.40;99.90
15949;DHT22;14848;50.954;6.642;2022-09-09T17:09:41;19.30;99.90
15949;DHT22;14848;50.954;6.642;2022-09-09T17:12:07;19.20;99.90
15949;DHT22;14848;50.954;6.642;2022-09-09T17:14:33;19.20;99.90
15949;DHT22;14848;50.954;6.642;2022-09-09T17:16:59;19.10;99.90
15949;DHT22;14848;50.954;6.642;2022-09-09T17:19:25;19.10;99.90
15949;DHT22;14848;50.954;6.642;2022-09-09T17:21:51;19.10;99.90
15949;DHT22;14848;50.954;6.642;2022-09-09T17:24:17;19.10;99.90
15949;DHT22;14848;50.954;6.642;2022-09-09T17:26:42;19.00;99.90
15949;DHT22;14848;50.954;6.642;2022-09-09T17:29:09;19.00;99.90
15949;DHT22;14848;50.954;6.642;2022-09-09T17:31:36;18.90;99.90
15949;DHT22;14848;50.954;6.642;2022-09-09T17:34:02;18.80;99.90
15949;DHT22;14848;50.954;6.642;2022-09-09T17:36:29;18.70;99.90
15949;DHT22;14848;50.954;6.642;2022-09-09T17:38:55;18.60;99.90